createdAt,value
2019-03-24T00:00:26.377Z,6.01
2019-03-24T00:01:26.366Z,5.99
2019-03-24T00:02:26.356Z,5.92
2019-03-24T00:03:26.360Z,5.98
2019-03-24T00:04:26.346Z,5.98
2019-03-24T00:05:26.335Z,5.94
2019-03-24T00:06:26.326Z,5.91
2019-03-24T00:07:26.066Z,5.97
2019-03-24T00:08:26.328Z,5.9
2019-03-24T00:09:26.306Z,5.95
2019-03-24T00:10:26.314Z,5.94
2019-03-24T00:11:26.285Z,5.91
2019-03-24T00:12:26.277Z,5.87
2019-03-24T00:13:27.428Z,5.92
2019-03-24T00:14:26.273Z,6.01
2019-03-24T00:15:31.262Z,5.91
2019-03-24T00:16:26.249Z,6.02
2019-03-24T00:17:26.235Z,5.99
2019-03-24T00:18:25.986Z,5.9
2019-03-24T00:19:26.221Z,5.94
2019-03-24T00:20:26.214Z,5.94
2019-03-24T00:21:26.206Z,5.84
2019-03-24T00:22:26.199Z,5.88
2019-03-24T00:23:26.189Z,5.87
2019-03-24T00:24:26.181Z,5.83
2019-03-24T00:25:26.176Z,5.84
2019-03-24T00:26:28.317Z,5.88
2019-03-24T00:27:26.156Z,5.72
2019-03-24T00:28:26.209Z,5.67
2019-03-24T00:29:26.148Z,5.77
2019-03-24T00:30:26.140Z,5.64
2019-03-24T00:31:26.149Z,5.67
2019-03-24T00:32:26.118Z,5.62
2019-03-24T00:33:26.212Z,5.72
2019-03-24T00:34:26.099Z,5.65
2019-03-24T00:35:26.093Z,5.67
2019-03-24T00:36:26.092Z,5.65
2019-03-24T00:37:26.080Z,5.65
2019-03-24T00:38:26.072Z,5.61
2019-03-24T00:39:26.063Z,5.54
2019-03-24T00:40:26.057Z,5.49
2019-03-24T00:41:26.048Z,5.52
2019-03-24T00:42:26.042Z,5.56
2019-03-24T00:43:26.033Z,5.41
2019-03-24T00:44:26.029Z,5.37
2019-03-24T00:45:36.136Z,5.46
2019-03-24T00:46:26.003Z,5.38
2019-03-24T00:47:26.001Z,5.36
2019-03-24T00:48:26.002Z,5.36
2019-03-24T00:49:25.979Z,5.33
2019-03-24T00:50:25.973Z,5.38
2019-03-24T00:51:25.965Z,5.37
2019-03-24T00:52:25.967Z,5.38
2019-03-24T00:53:25.949Z,5.34
2019-03-24T00:54:25.941Z,5.31
2019-03-24T00:55:25.937Z,5.28
2019-03-24T00:56:25.924Z,5.25
2019-03-24T00:57:25.918Z,5.22
2019-03-24T00:58:25.916Z,5.15
2019-03-24T00:59:25.904Z,5.12
2019-03-24T01:00:25.903Z,5.1
2019-03-24T01:01:25.897Z,5.05
2019-03-24T01:02:25.881Z,5.02
2019-03-24T01:03:25.870Z,4.97
2019-03-24T01:04:27.112Z,4.98
2019-03-24T01:05:25.858Z,4.89
2019-03-24T01:06:25.853Z,4.94
2019-03-24T01:07:25.837Z,4.9
2019-03-24T01:08:25.830Z,4.95
2019-03-24T01:09:25.818Z,5
2019-03-24T01:10:25.812Z,4.95
2019-03-24T01:11:25.809Z,4.97
2019-03-24T01:12:25.795Z,5
2019-03-24T01:13:25.794Z,5.07
2019-03-24T01:14:25.779Z,5
2019-03-24T01:15:25.768Z,5
2019-03-24T01:16:25.760Z,5
2019-03-24T01:17:25.754Z,4.9
2019-03-24T01:18:25.752Z,4.94
2019-03-24T01:19:25.738Z,4.86
2019-03-24T01:20:25.732Z,4.92
2019-03-24T01:21:25.721Z,4.92
2019-03-24T01:22:25.712Z,4.89
2019-03-24T01:23:25.708Z,4.83
2019-03-24T01:24:25.702Z,4.83
2019-03-24T01:25:25.437Z,4.79
2019-03-24T01:26:25.687Z,4.74
2019-03-24T01:27:25.678Z,4.82
2019-03-24T01:28:25.670Z,4.83
2019-03-24T01:29:25.668Z,4.79
2019-03-24T01:30:25.647Z,4.75
2019-03-24T01:31:25.641Z,4.71
2019-03-24T01:32:25.383Z,4.67
2019-03-24T01:33:25.626Z,4.71
2019-03-24T01:34:25.623Z,4.67
2019-03-24T01:35:25.611Z,4.66
2019-03-24T01:36:25.604Z,4.68
2019-03-24T01:37:25.339Z,4.66
2019-03-24T01:38:25.333Z,4.66
2019-03-24T01:39:25.579Z,4.61
2019-03-24T01:40:25.568Z,4.58
2019-03-24T01:41:25.561Z,4.53
2019-03-24T01:42:25.553Z,4.53
2019-03-24T01:43:25.547Z,4.46
2019-03-24T01:44:25.538Z,4.49
2019-03-24T01:45:25.524Z,4.49
2019-03-24T01:46:25.522Z,4.53
2019-03-24T01:47:25.509Z,4.48
2019-03-24T01:48:25.503Z,4.49
2019-03-24T01:49:25.492Z,4.5
2019-03-24T01:50:25.489Z,4.45
2019-03-24T01:51:25.418Z,4.42
2019-03-24T01:52:25.477Z,4.46
2019-03-24T01:53:25.462Z,4.5
2019-03-24T01:54:25.457Z,4.48
2019-03-24T01:55:25.442Z,4.5
2019-03-24T01:56:25.437Z,4.52
2019-03-24T01:57:25.178Z,4.34
2019-03-24T01:58:25.419Z,4.49
2019-03-24T01:59:25.412Z,4.46
2019-03-24T02:00:25.411Z,4.4
2019-03-24T02:01:25.397Z,4.45
2019-03-24T02:02:25.404Z,4.39
2019-03-24T02:03:25.379Z,4.39
2019-03-24T02:04:25.373Z,4.36
2019-03-24T02:05:25.366Z,4.42
2019-03-24T02:06:25.355Z,4.4
2019-03-24T02:07:25.351Z,4.42
2019-03-24T02:08:25.342Z,4.43
2019-03-24T02:09:25.332Z,4.38
2019-03-24T02:10:25.087Z,4.36
2019-03-24T02:11:25.332Z,4.3
2019-03-24T02:12:25.322Z,4.2
2019-03-24T02:13:25.303Z,4.22
2019-03-24T02:14:25.290Z,4.21
2019-03-24T02:15:25.328Z,4.18
2019-03-24T02:16:25.272Z,4.21
2019-03-24T02:17:25.259Z,4.14
2019-03-24T02:18:25.250Z,4.12
2019-03-24T02:19:25.286Z,4.13
2019-03-24T02:20:25.234Z,4.04
2019-03-24T02:21:25.228Z,4.12
2019-03-24T02:22:26.425Z,4.13
2019-03-24T02:23:25.225Z,4
2019-03-24T02:24:25.208Z,4.09
2019-03-24T02:25:24.947Z,4.07
2019-03-24T02:26:25.190Z,4.03
2019-03-24T02:27:25.180Z,4
2019-03-24T02:28:25.172Z,3.96
2019-03-24T02:29:25.166Z,3.99
2019-03-24T02:30:24.934Z,4.09
2019-03-24T02:31:25.156Z,4.13
2019-03-24T02:32:25.150Z,4.14
2019-03-24T02:33:25.143Z,4.34
2019-03-24T02:34:25.136Z,4.45
2019-03-24T02:35:25.123Z,4.61
2019-03-24T02:36:25.108Z,4.67
2019-03-24T02:37:25.108Z,4.68
2019-03-24T02:38:25.094Z,4.71
2019-03-24T02:39:25.084Z,4.61
2019-03-24T02:40:25.076Z,4.68
2019-03-24T02:41:25.069Z,4.75
2019-03-24T02:42:25.062Z,4.74
2019-03-24T02:43:25.050Z,4.61
2019-03-24T02:44:25.057Z,4.53
2019-03-24T02:45:25.128Z,4.58
2019-03-24T02:46:29.647Z,4.45
2019-03-24T02:47:25.029Z,4.42
2019-03-24T02:48:25.023Z,4.28
2019-03-24T02:49:25.010Z,4.28
2019-03-24T02:50:24.988Z,4.2
2019-03-24T02:51:24.994Z,4.16
2019-03-24T02:52:24.984Z,4.04
2019-03-24T02:53:24.973Z,4.04
2019-03-24T02:54:24.978Z,3.96
2019-03-24T02:55:24.948Z,3.95
2019-03-24T02:56:24.948Z,3.96
2019-03-24T02:57:24.947Z,3.94
2019-03-24T02:58:24.924Z,3.89
2019-03-24T02:59:24.928Z,3.91
2019-03-24T03:00:24.910Z,4.04
2019-03-24T03:01:24.901Z,4.07
2019-03-24T03:02:24.906Z,3.99
2019-03-24T03:03:24.633Z,3.95
2019-03-24T03:04:24.887Z,4
2019-03-24T03:05:24.875Z,4.07
2019-03-24T03:06:24.863Z,4.04
2019-03-24T03:07:24.860Z,4.09
2019-03-24T03:08:24.854Z,3.96
2019-03-24T03:09:24.881Z,4
2019-03-24T03:10:24.835Z,3.95
2019-03-24T03:11:24.836Z,4.04
2019-03-24T03:12:24.810Z,3.95
2019-03-24T03:13:24.802Z,3.88
2019-03-24T03:14:24.798Z,3.84
2019-03-24T03:15:24.835Z,3.81
2019-03-24T03:16:37.756Z,3.78
2019-03-24T03:17:24.772Z,3.85
2019-03-24T03:18:24.758Z,3.85
2019-03-24T03:19:24.752Z,3.88
2019-03-24T03:20:24.832Z,3.82
2019-03-24T03:21:24.729Z,3.91
2019-03-24T03:22:24.727Z,3.86
2019-03-24T03:23:24.713Z,3.78
2019-03-24T03:24:24.739Z,3.84
2019-03-24T03:25:24.708Z,3.7
2019-03-24T03:26:24.692Z,3.64
2019-03-24T03:27:24.682Z,3.58
2019-03-24T03:28:24.679Z,3.56
2019-03-24T03:29:24.666Z,3.58
2019-03-24T03:30:24.676Z,3.53
2019-03-24T03:31:24.816Z,3.55
2019-03-24T03:32:24.706Z,3.5
2019-03-24T03:33:24.653Z,3.46
2019-03-24T03:34:24.686Z,3.55
2019-03-24T03:35:24.703Z,3.49
2019-03-24T03:36:24.672Z,3.5
2019-03-24T03:37:24.609Z,3.49
2019-03-24T03:38:24.614Z,3.48
2019-03-24T03:39:24.624Z,3.45
2019-03-24T03:40:24.665Z,3.43
2019-03-24T03:41:24.683Z,3.55
2019-03-24T03:42:24.560Z,3.37
2019-03-24T03:43:24.546Z,3.53
2019-03-24T03:44:24.538Z,3.46
2019-03-24T03:45:24.542Z,3.34
2019-03-24T03:46:24.521Z,3.36
2019-03-24T03:47:24.524Z,3.36
2019-03-24T03:48:24.511Z,3.33
2019-03-24T03:49:24.544Z,3.33
2019-03-24T03:50:24.506Z,3.41
2019-03-24T03:51:24.487Z,3.53
2019-03-24T03:52:24.481Z,3.49
2019-03-24T03:53:24.477Z,3.45
2019-03-24T03:54:24.459Z,3.53
2019-03-24T03:55:24.468Z,3.48
2019-03-24T03:56:24.474Z,3.56
2019-03-24T03:57:24.427Z,3.55
2019-03-24T03:58:24.452Z,3.61
2019-03-24T03:59:24.444Z,3.59
2019-03-24T04:00:24.403Z,3.53
2019-03-24T04:01:24.391Z,3.48
2019-03-24T04:02:24.395Z,3.58
2019-03-24T04:03:24.374Z,3.49
2019-03-24T04:04:24.377Z,3.55
2019-03-24T04:05:24.356Z,3.48
2019-03-24T04:06:24.347Z,3.53
2019-03-24T04:07:24.351Z,3.36
2019-03-24T04:08:24.364Z,3.34
2019-03-24T04:09:24.360Z,3.4
2019-03-24T04:10:24.320Z,3.26
2019-03-24T04:11:24.464Z,3.31
2019-03-24T04:12:24.299Z,3.24
2019-03-24T04:13:24.292Z,3.26
2019-03-24T04:14:24.290Z,3.21
2019-03-24T04:15:24.284Z,3.3
2019-03-24T04:16:24.287Z,3.06
2019-03-24T04:17:23.764Z,3.24
2019-03-24T04:18:24.005Z,3.11
2019-03-24T04:19:24.242Z,3.06
2019-03-24T04:20:24.226Z,2.97
2019-03-24T04:21:24.236Z,2.97
2019-03-24T04:22:24.222Z,3.03
2019-03-24T04:23:24.223Z,2.98
2019-03-24T04:24:24.200Z,3
2019-03-24T04:25:24.194Z,2.91
2019-03-24T04:26:24.179Z,2.88
2019-03-24T04:27:23.666Z,2.93
2019-03-24T04:28:24.166Z,2.93
2019-03-24T04:29:24.159Z,2.94
2019-03-24T04:30:24.147Z,2.91
2019-03-24T04:31:24.149Z,2.94
2019-03-24T04:32:24.130Z,2.97
2019-03-24T04:33:24.142Z,2.87
2019-03-24T04:34:23.870Z,2.8
2019-03-24T04:35:24.102Z,2.77
2019-03-24T04:36:24.094Z,2.65
2019-03-24T04:37:24.089Z,2.65
2019-03-24T04:38:24.071Z,2.7
2019-03-24T04:39:24.073Z,2.61
2019-03-24T04:40:24.067Z,2.65
2019-03-24T04:41:24.046Z,2.73
2019-03-24T04:42:24.037Z,2.68
2019-03-24T04:43:24.112Z,2.68
2019-03-24T04:44:24.016Z,2.79
2019-03-24T04:45:24.011Z,2.64
2019-03-24T04:46:24.002Z,2.65
2019-03-24T04:47:23.996Z,2.59
2019-03-24T04:48:23.990Z,2.5
2019-03-24T04:49:23.977Z,2.55
2019-03-24T04:50:23.969Z,2.5
2019-03-24T04:51:23.966Z,2.5
2019-03-24T04:52:23.948Z,2.43
2019-03-24T04:53:25.431Z,2.43
2019-03-24T04:54:23.932Z,2.37
2019-03-24T04:55:23.930Z,2.34
2019-03-24T04:56:23.916Z,2.34
2019-03-24T04:57:23.655Z,2.44
2019-03-24T04:58:24.050Z,2.51
2019-03-24T04:59:23.891Z,2.43
2019-03-24T05:00:23.923Z,2.47
2019-03-24T05:01:23.872Z,2.54
2019-03-24T05:02:23.635Z,2.5
2019-03-24T05:03:23.857Z,2.61
2019-03-24T05:04:23.866Z,2.61
2019-03-24T05:05:23.841Z,2.62
2019-03-24T05:06:23.842Z,2.62
2019-03-24T05:07:23.816Z,2.64
2019-03-24T05:08:23.834Z,2.62
2019-03-24T05:09:23.554Z,2.72
2019-03-24T05:10:23.799Z,2.72
2019-03-24T05:11:23.836Z,2.69
2019-03-24T05:12:23.776Z,2.72
2019-03-24T05:13:23.772Z,2.72
2019-03-24T05:14:23.762Z,2.69
2019-03-24T05:15:23.754Z,2.7
2019-03-24T05:16:23.744Z,2.47
2019-03-24T05:17:31.824Z,2.46
2019-03-24T05:18:23.727Z,2.37
2019-03-24T05:19:23.719Z,2.41
2019-03-24T05:20:23.712Z,2.4
2019-03-24T05:21:23.716Z,2.34
2019-03-24T05:22:23.705Z,2.32
2019-03-24T05:23:23.691Z,2.23
2019-03-24T05:24:23.672Z,2.23
2019-03-24T05:25:23.779Z,2.22
2019-03-24T05:26:23.663Z,2.21
2019-03-24T05:27:23.654Z,2.25
2019-03-24T05:28:23.638Z,2.3
2019-03-24T05:29:23.654Z,2.34
2019-03-24T05:30:23.635Z,2.3
2019-03-24T05:31:23.612Z,2.37
2019-03-24T05:32:23.609Z,2.4
2019-03-24T05:33:23.601Z,2.37
2019-03-24T05:34:23.595Z,2.51
2019-03-24T05:35:23.586Z,2.44
2019-03-24T05:36:23.578Z,2.44
2019-03-24T05:37:23.567Z,2.55
2019-03-24T05:38:23.562Z,2.52
2019-03-24T05:39:23.546Z,2.54
2019-03-24T05:40:23.540Z,2.51
2019-03-24T05:41:23.529Z,2.51
2019-03-24T05:42:23.521Z,2.51
2019-03-24T05:43:23.520Z,2.44
2019-03-24T05:44:23.506Z,2.58
2019-03-24T05:45:23.489Z,2.59
2019-03-24T05:46:23.482Z,2.64
2019-03-24T05:47:23.222Z,2.57
2019-03-24T05:48:23.469Z,2.57
2019-03-24T05:49:23.459Z,2.51
2019-03-24T05:50:23.452Z,2.73
2019-03-24T05:51:23.442Z,2.59
2019-03-24T05:52:23.430Z,2.76
2019-03-24T05:53:23.425Z,2.82
2019-03-24T05:54:23.414Z,2.76
2019-03-24T05:55:23.408Z,2.76
2019-03-24T05:56:23.394Z,2.83
2019-03-24T05:57:23.391Z,2.88
2019-03-24T05:58:23.128Z,2.85
2019-03-24T05:59:23.374Z,2.87
2019-03-24T06:00:23.465Z,2.97
2019-03-24T06:01:23.356Z,3.06
2019-03-24T06:02:23.095Z,3.06
2019-03-24T06:03:23.338Z,3.19
2019-03-24T06:04:23.323Z,3.18
2019-03-24T06:05:23.317Z,3.15
2019-03-24T06:06:23.306Z,3.26
2019-03-24T06:07:23.299Z,3.4
2019-03-24T06:08:23.292Z,3.36
2019-03-24T06:09:23.279Z,3.4
2019-03-24T06:10:23.270Z,3.49
2019-03-24T06:11:23.268Z,3.53
2019-03-24T06:12:23.298Z,3.52
2019-03-24T06:13:23.247Z,3.53
2019-03-24T06:14:23.241Z,3.58
2019-03-24T06:15:23.233Z,3.61
2019-03-24T06:16:23.269Z,3.64
2019-03-24T06:17:23.210Z,3.74
2019-03-24T06:18:23.203Z,3.77
2019-03-24T06:19:23.196Z,3.78
2019-03-24T06:20:23.188Z,3.89
2019-03-24T06:21:23.177Z,3.99
2019-03-24T06:22:23.167Z,3.95
2019-03-24T06:23:22.908Z,4.02
2019-03-24T06:24:23.153Z,4.1
2019-03-24T06:25:23.178Z,4.16
2019-03-24T06:26:23.131Z,4.2
2019-03-24T06:27:23.123Z,4.21
2019-03-24T06:28:23.117Z,4.32
2019-03-24T06:29:23.110Z,4.38
2019-03-24T06:30:23.098Z,4.36
2019-03-24T06:31:23.099Z,4.27
2019-03-24T06:32:23.080Z,4.2
2019-03-24T06:33:23.076Z,3.99
2019-03-24T06:34:23.078Z,3.91
2019-03-24T06:35:23.070Z,3.89
2019-03-24T06:36:23.051Z,3.86
2019-03-24T06:37:23.037Z,3.84
2019-03-24T06:38:23.030Z,3.86
2019-03-24T06:39:23.023Z,3.96
2019-03-24T06:40:24.713Z,3.96
2019-03-24T06:41:23.005Z,4.04
2019-03-24T06:42:22.996Z,4.2
2019-03-24T06:43:22.987Z,4.18
2019-03-24T06:44:22.979Z,4.34
2019-03-24T06:45:33.187Z,4.45
2019-03-24T06:46:22.969Z,4.46
2019-03-24T06:47:23.861Z,4.57
2019-03-24T06:48:22.951Z,4.61
2019-03-24T06:49:22.944Z,4.68
2019-03-24T06:50:22.929Z,4.7
2019-03-24T06:51:22.917Z,4.86
2019-03-24T06:52:22.909Z,4.92
2019-03-24T06:53:22.898Z,4.92
2019-03-24T06:54:22.893Z,5.07
2019-03-24T06:55:22.886Z,5.18
2019-03-24T06:56:22.874Z,5.31
2019-03-24T06:57:22.873Z,5.4
2019-03-24T06:58:22.855Z,5.4
2019-03-24T06:59:22.850Z,5.54
2019-03-24T07:00:22.841Z,5.65
2019-03-24T07:01:22.831Z,5.79
2019-03-24T07:02:22.820Z,5.83
2019-03-24T07:03:22.812Z,5.9
2019-03-24T07:04:22.805Z,5.91
2019-03-24T07:05:22.797Z,6.01
2019-03-24T07:06:22.786Z,6.09
2019-03-24T07:07:22.777Z,6.17
2019-03-24T07:08:22.768Z,6.29
2019-03-24T07:09:22.760Z,6.34
2019-03-24T07:10:22.776Z,6.32
2019-03-24T07:11:22.743Z,6.28
2019-03-24T07:12:22.736Z,6.35
2019-03-24T07:13:22.726Z,6.43
2019-03-24T07:14:22.724Z,6.36
2019-03-24T07:15:22.707Z,6.41
2019-03-24T07:16:23.394Z,6.39
2019-03-24T07:17:22.694Z,6.47
2019-03-24T07:18:22.740Z,6.49
2019-03-24T07:19:22.676Z,6.49
2019-03-24T07:20:22.666Z,6.46
2019-03-24T07:21:22.662Z,6.44
2019-03-24T07:22:22.651Z,6.49
2019-03-24T07:23:22.643Z,6.53
2019-03-24T07:24:22.634Z,6.5
2019-03-24T07:25:22.640Z,6.64
2019-03-24T07:26:22.620Z,6.49
2019-03-24T07:27:22.612Z,6.65
2019-03-24T07:28:24.772Z,6.59
2019-03-24T07:29:22.590Z,6.71
2019-03-24T07:30:22.584Z,6.59
2019-03-24T07:31:22.574Z,6.65
2019-03-24T07:32:22.567Z,6.72
2019-03-24T07:33:22.555Z,6.85
2019-03-24T07:34:22.700Z,6.74
2019-03-24T07:35:23.209Z,6.86
2019-03-24T07:36:22.532Z,6.95
2019-03-24T07:37:22.522Z,6.9
2019-03-24T07:38:22.519Z,6.95
2019-03-24T07:39:22.504Z,7.04
2019-03-24T07:40:22.496Z,7.13
2019-03-24T07:41:22.506Z,7.15
2019-03-24T07:42:22.478Z,7.19
2019-03-24T07:43:22.475Z,7.21
2019-03-24T07:44:22.473Z,7.23
2019-03-24T07:45:22.455Z,7.31
2019-03-24T07:46:22.451Z,7.41
2019-03-24T07:47:22.449Z,7.4
2019-03-24T07:48:24.230Z,7.47
2019-03-24T07:49:22.426Z,7.59
2019-03-24T07:50:22.416Z,7.53
2019-03-24T07:51:22.403Z,7.62
2019-03-24T07:52:22.396Z,7.61
2019-03-24T07:53:22.385Z,7.66
2019-03-24T07:54:22.380Z,7.7
2019-03-24T07:55:22.377Z,7.8
2019-03-24T07:56:22.361Z,7.8
2019-03-24T07:57:22.357Z,7.81
2019-03-24T07:58:22.346Z,7.81
2019-03-24T07:59:22.360Z,7.85
2019-03-24T08:00:22.079Z,7.88
2019-03-24T08:01:22.327Z,7.85
2019-03-24T08:02:22.320Z,7.99
2019-03-24T08:03:22.307Z,8.03
2019-03-24T08:04:22.299Z,8.05
2019-03-24T08:05:22.389Z,8.13
2019-03-24T08:06:22.287Z,8.09
2019-03-24T08:07:22.270Z,8.06
2019-03-24T08:08:22.260Z,8.14
2019-03-24T08:09:22.256Z,8.21
2019-03-24T08:10:22.248Z,8.2
2019-03-24T08:11:22.273Z,8.21
2019-03-24T08:12:22.236Z,8.34
2019-03-24T08:13:22.224Z,8.39
2019-03-24T08:14:22.218Z,8.38
2019-03-24T08:15:22.209Z,8.45
2019-03-24T08:16:22.195Z,8.45
2019-03-24T08:17:21.936Z,8.45
2019-03-24T08:18:32.394Z,8.56
2019-03-24T08:19:22.175Z,8.6
2019-03-24T08:20:22.172Z,8.54
2019-03-24T08:21:22.158Z,8.69
2019-03-24T08:22:22.148Z,8.75
2019-03-24T08:23:22.144Z,8.78
2019-03-24T08:24:22.127Z,9.02
2019-03-24T08:25:23.705Z,8.93
2019-03-24T08:26:22.118Z,8.92
2019-03-24T08:27:22.105Z,9.02
2019-03-24T08:28:23.161Z,9
2019-03-24T08:29:22.091Z,9.18
2019-03-24T08:30:21.827Z,9.26
2019-03-24T08:31:22.071Z,9.29
2019-03-24T08:32:22.064Z,9.3
2019-03-24T08:33:22.056Z,9.31
2019-03-24T08:34:22.048Z,9.33
2019-03-24T08:35:22.039Z,9.3
2019-03-24T08:36:22.087Z,9.42
2019-03-24T08:37:22.026Z,9.45
2019-03-24T08:38:22.019Z,9.62
2019-03-24T08:39:22.006Z,9.59
2019-03-24T08:40:21.999Z,9.52
2019-03-24T08:41:22.007Z,9.64
2019-03-24T08:42:21.981Z,9.64
2019-03-24T08:43:21.972Z,9.69
2019-03-24T08:44:21.972Z,9.64
2019-03-24T08:45:21.969Z,9.59
2019-03-24T08:46:21.949Z,9.76
2019-03-24T08:47:21.942Z,9.92
2019-03-24T08:48:21.934Z,9.91
2019-03-24T08:49:21.924Z,9.91
2019-03-24T08:50:21.919Z,10.03
2019-03-24T08:51:21.909Z,10.07
2019-03-24T08:52:21.897Z,10.02
2019-03-24T08:53:21.891Z,10.21
2019-03-24T08:54:21.891Z,10.27
2019-03-24T08:55:21.877Z,10.33
2019-03-24T08:56:21.871Z,10.38
2019-03-24T08:57:21.907Z,10.43
2019-03-24T08:58:21.853Z,10.43
2019-03-24T08:59:21.842Z,10.39
2019-03-24T09:00:32.551Z,10.53
2019-03-24T09:01:21.831Z,10.42
2019-03-24T09:02:21.821Z,10.49
2019-03-24T09:03:21.812Z,10.48
2019-03-24T09:04:21.805Z,10.59
2019-03-24T09:05:21.795Z,10.65
2019-03-24T09:06:21.536Z,10.58
2019-03-24T09:07:21.937Z,10.65
2019-03-24T09:08:21.770Z,10.75
2019-03-24T09:09:21.763Z,10.77
2019-03-24T09:10:21.760Z,10.83
2019-03-24T09:11:30.773Z,10.89
2019-03-24T09:12:21.745Z,10.94
2019-03-24T09:13:21.737Z,10.92
2019-03-24T09:14:21.723Z,11.05
2019-03-24T09:15:21.718Z,11.12
2019-03-24T09:16:21.707Z,11.18
2019-03-24T09:17:21.445Z,11.23
2019-03-24T09:18:21.690Z,11.26
2019-03-24T09:19:21.683Z,11.31
2019-03-24T09:20:21.680Z,11.35
2019-03-24T09:21:22.093Z,11.35
2019-03-24T09:22:21.658Z,11.31
2019-03-24T09:23:21.649Z,11.27
2019-03-24T09:24:21.645Z,11.35
2019-03-24T09:25:21.777Z,11.34
2019-03-24T09:26:21.379Z,11.34
2019-03-24T09:27:21.618Z,11.27
2019-03-24T09:28:21.611Z,11.33
2019-03-24T09:29:21.603Z,11.26
2019-03-24T09:30:21.597Z,11.31
2019-03-24T09:31:21.592Z,11.3
2019-03-24T09:32:21.577Z,11.22
2019-03-24T09:33:21.573Z,11.27
2019-03-24T09:34:21.569Z,11.2
2019-03-24T09:35:21.560Z,11.26
2019-03-24T09:36:21.551Z,11.27
2019-03-24T09:37:21.542Z,11.37
2019-03-24T09:38:21.593Z,11.41
2019-03-24T09:39:21.524Z,11.4
2019-03-24T09:40:23.502Z,11.41
2019-03-24T09:41:21.513Z,11.53
2019-03-24T09:42:21.254Z,11.56
2019-03-24T09:43:21.500Z,11.63
2019-03-24T09:44:21.492Z,11.71
2019-03-24T09:45:21.225Z,11.77
2019-03-24T09:46:21.476Z,11.76
2019-03-24T09:47:21.459Z,11.78
2019-03-24T09:48:21.453Z,11.8
2019-03-24T09:49:21.446Z,11.77
2019-03-24T09:50:21.438Z,11.95
2019-03-24T09:51:23.573Z,12.03
2019-03-24T09:52:21.420Z,12.03
2019-03-24T09:53:21.418Z,12.14
2019-03-24T09:54:21.402Z,12.08
2019-03-24T09:55:21.397Z,12.12
2019-03-24T09:56:21.392Z,12.21
2019-03-24T09:57:21.135Z,12.23
2019-03-24T09:58:21.384Z,12.28
2019-03-24T09:59:21.413Z,12.36
2019-03-24T10:00:21.369Z,12.39
2019-03-24T10:01:21.354Z,12.39
2019-03-24T10:02:21.091Z,12.54
2019-03-24T10:03:21.335Z,12.61
2019-03-24T10:04:21.331Z,12.63
2019-03-24T10:05:21.319Z,12.58
2019-03-24T10:06:21.311Z,12.7
2019-03-24T10:07:21.059Z,12.8
2019-03-24T10:08:21.295Z,12.78
2019-03-24T10:09:21.294Z,12.84
2019-03-24T10:10:21.280Z,12.86
2019-03-24T10:11:21.018Z,12.81
2019-03-24T10:12:21.014Z,12.84
2019-03-24T10:13:21.254Z,12.78
2019-03-24T10:14:21.254Z,12.81
2019-03-24T10:15:21.257Z,12.86
2019-03-24T10:16:21.233Z,12.87
2019-03-24T10:17:20.973Z,12.9
2019-03-24T10:18:21.227Z,13.03
2019-03-24T10:19:20.961Z,13.05
2019-03-24T10:20:21.251Z,13.13
2019-03-24T10:21:21.194Z,13.12
2019-03-24T10:22:21.187Z,13.2
2019-03-24T10:23:21.175Z,13.2
2019-03-24T10:24:21.169Z,13.12
2019-03-24T10:25:21.312Z,13.13
2019-03-24T10:26:21.152Z,13.26
2019-03-24T10:27:21.148Z,13.27
2019-03-24T10:28:21.140Z,13.19
2019-03-24T10:29:21.130Z,13.3
2019-03-24T10:30:21.122Z,13.2
2019-03-24T10:31:21.112Z,13.21
2019-03-24T10:32:21.107Z,13.28
2019-03-24T10:33:21.099Z,13.31
2019-03-24T10:34:20.840Z,13.55
2019-03-24T10:35:21.090Z,13.5
2019-03-24T10:36:21.073Z,13.55
2019-03-24T10:37:21.069Z,13.52
2019-03-24T10:38:21.056Z,13.6
2019-03-24T10:39:21.049Z,13.71
2019-03-24T10:40:30.729Z,13.71
2019-03-24T10:41:21.032Z,13.7
2019-03-24T10:42:21.030Z,13.86
2019-03-24T10:43:21.027Z,13.8
2019-03-24T10:44:21.015Z,13.98
2019-03-24T10:45:20.999Z,14.04
2019-03-24T10:46:20.991Z,14.04
2019-03-24T10:47:20.984Z,14.04
2019-03-24T10:48:20.726Z,14.05
2019-03-24T10:49:29.511Z,14.04
2019-03-24T10:50:20.962Z,14.05
2019-03-24T10:51:20.953Z,14.04
2019-03-24T10:52:20.945Z,14.11
2019-03-24T10:53:20.935Z,14.13
2019-03-24T10:54:20.926Z,14.15
2019-03-24T10:55:20.932Z,14.12
2019-03-24T10:56:20.965Z,14.18
2019-03-24T10:57:20.908Z,14.2
2019-03-24T10:58:20.900Z,14.31
2019-03-24T10:59:20.897Z,14.38
2019-03-24T11:00:20.882Z,14.33
2019-03-24T11:01:20.874Z,14.37
2019-03-24T11:02:20.868Z,14.43
2019-03-24T11:03:20.862Z,14.45
2019-03-24T11:04:20.859Z,14.43
2019-03-24T11:05:20.894Z,14.51
2019-03-24T11:06:20.837Z,14.55
2019-03-24T11:07:20.838Z,14.7
2019-03-24T11:08:20.822Z,14.71
2019-03-24T11:09:20.814Z,14.7
2019-03-24T11:10:20.811Z,14.78
2019-03-24T11:11:20.549Z,14.81
2019-03-24T11:12:20.947Z,14.94
2019-03-24T11:13:20.281Z,14.92
2019-03-24T11:14:20.780Z,14.94
2019-03-24T11:15:20.773Z,14.87
2019-03-24T11:16:20.764Z,15
2019-03-24T11:17:20.832Z,14.97
2019-03-24T11:18:20.745Z,15.12
2019-03-24T11:19:20.737Z,15.1
2019-03-24T11:20:20.745Z,15.14
2019-03-24T11:21:20.473Z,15.23
2019-03-24T11:22:20.725Z,15.3
2019-03-24T11:23:20.708Z,15.37
2019-03-24T11:24:20.702Z,15.45
2019-03-24T11:25:20.693Z,15.45
2019-03-24T11:26:20.686Z,15.44
2019-03-24T11:27:20.679Z,15.41
2019-03-24T11:28:21.747Z,15.43
2019-03-24T11:29:20.664Z,15.37
2019-03-24T11:30:20.664Z,15.33
2019-03-24T11:31:20.654Z,15.3
2019-03-24T11:32:20.642Z,15.25
2019-03-24T11:33:20.634Z,15.25
2019-03-24T11:34:20.631Z,15.25
2019-03-24T11:35:20.621Z,15.22
2019-03-24T11:36:20.619Z,15.27
2019-03-24T11:37:20.609Z,15.25
2019-03-24T11:38:20.599Z,15.25
2019-03-24T11:39:20.597Z,15.35
2019-03-24T11:40:20.594Z,15.35
2019-03-24T11:41:20.577Z,15.36
2019-03-24T11:42:20.567Z,15.41
2019-03-24T11:43:20.618Z,15.51
2019-03-24T11:44:20.561Z,15.52
2019-03-24T11:45:20.551Z,15.55
2019-03-24T11:46:20.585Z,15.5
2019-03-24T11:47:30.810Z,15.47
2019-03-24T11:48:20.522Z,15.43
2019-03-24T11:49:20.511Z,15.5
2019-03-24T11:50:20.518Z,15.59
2019-03-24T11:51:20.001Z,15.78
2019-03-24T11:52:20.494Z,15.73
2019-03-24T11:53:20.483Z,15.65
2019-03-24T11:54:20.476Z,15.7
2019-03-24T11:55:20.471Z,15.72
2019-03-24T11:56:20.212Z,15.76
2019-03-24T11:57:20.509Z,15.72
2019-03-24T11:58:20.447Z,15.65
2019-03-24T11:59:20.440Z,15.75
2019-03-24T12:00:20.433Z,15.69
2019-03-24T12:01:20.427Z,15.78
2019-03-24T12:02:20.414Z,15.88
2019-03-24T12:03:20.428Z,15.85
2019-03-24T12:04:20.401Z,15.9
2019-03-24T12:05:20.395Z,15.85
2019-03-24T12:06:20.386Z,15.85
2019-03-24T12:07:20.377Z,15.92
2019-03-24T12:08:20.371Z,15.96
2019-03-24T12:09:20.364Z,16.12
2019-03-24T12:10:20.363Z,16.09
2019-03-24T12:11:20.348Z,16.08
2019-03-24T12:12:20.344Z,16.05
2019-03-24T12:13:20.338Z,16.12
2019-03-24T12:14:20.387Z,16.12
2019-03-24T12:15:20.318Z,16.26
2019-03-24T12:16:20.313Z,16.4
2019-03-24T12:17:20.312Z,16.51
2019-03-24T12:18:20.299Z,16.61
2019-03-24T12:19:20.292Z,16.59
2019-03-24T12:20:20.282Z,16.57
2019-03-24T12:21:20.276Z,16.57
2019-03-24T12:22:20.269Z,16.44
2019-03-24T12:23:21.059Z,16.39
2019-03-24T12:24:20.251Z,16.46
2019-03-24T12:25:20.246Z,16.41
2019-03-24T12:26:20.239Z,16.51
2019-03-24T12:27:20.235Z,16.4
2019-03-24T12:28:19.972Z,16.55
2019-03-24T12:29:20.212Z,16.59
2019-03-24T12:30:20.208Z,16.62
2019-03-24T12:31:20.199Z,16.69
2019-03-24T12:32:20.470Z,16.82
2019-03-24T12:33:19.933Z,16.86
2019-03-24T12:34:20.182Z,16.91
2019-03-24T12:35:20.172Z,16.92
2019-03-24T12:36:20.158Z,17.05
2019-03-24T12:37:20.152Z,16.92
2019-03-24T12:38:20.162Z,16.92
2019-03-24T12:39:20.136Z,16.99
2019-03-24T12:40:19.889Z,17.05
2019-03-24T12:41:20.126Z,17.13
2019-03-24T12:42:20.119Z,17.23
2019-03-24T12:43:24.672Z,17.35
2019-03-24T12:44:20.098Z,17.41
2019-03-24T12:45:20.293Z,17.47
2019-03-24T12:46:19.836Z,17.46
2019-03-24T12:47:20.078Z,17.47
2019-03-24T12:48:20.316Z,17.47
2019-03-24T12:49:20.104Z,17.41
2019-03-24T12:50:30.530Z,17.42
2019-03-24T12:51:20.103Z,17.46
2019-03-24T12:52:20.044Z,17.39
2019-03-24T12:53:20.032Z,17.31
2019-03-24T12:54:20.027Z,17.32
2019-03-24T12:55:20.022Z,17.32
2019-03-24T12:56:20.015Z,17.37
2019-03-24T12:57:20.002Z,17.41
2019-03-24T12:58:19.758Z,17.37
2019-03-24T12:59:19.984Z,17.44
2019-03-24T13:00:19.976Z,17.49
2019-03-24T13:01:20.033Z,17.47
2019-03-24T13:02:19.971Z,17.6
2019-03-24T13:03:20.004Z,17.54
2019-03-24T13:04:19.697Z,17.54
2019-03-24T13:05:20.401Z,17.6
2019-03-24T13:06:19.937Z,17.69
2019-03-24T13:07:19.931Z,17.69
2019-03-24T13:08:19.933Z,17.71
2019-03-24T13:09:19.916Z,17.78
2019-03-24T13:10:19.905Z,17.82
2019-03-24T13:11:19.904Z,17.9
2019-03-24T13:12:19.907Z,18
2019-03-24T13:13:19.927Z,17.91